Time;durP1;ratioP1;P1;durP2;ratioP2;P2;SDS_P1;SDS_P2;PMS_P1;PMS_P2;Temp;Humidity;BMP_temperature;BMP_pressure;BME280_temperature;BME280_humidity;BME280_pressure;Samples;Min_cycle;Max_cycle;Signal;HPM_P1;HPM_P2
2022/06/16 00:00:17;;;;;;;2.67;2.10;;;22.70;88.70;;;;;;7392238;19;20131;-77
2022/06/16 00:02:50;;;;;;;4.05;2.45;;;22.90;87.70;;;;;;7396139;19;20509;-72
2022/06/16 00:05:20;;;;;;;2.58;2.15;;;22.80;87.40;;;;;;7393987;19;20265;-72
2022/06/16 00:07:46;;;;;;;2.75;1.90;;;22.90;87.40;;;;;;7393692;19;20130;-77
2022/06/16 00:10:12;;;;;;;3.38;2.30;;;22.90;87.10;;;;;;7394918;19;20127;-72
2022/06/16 00:12:39;;;;;;;3.20;2.33;;;22.90;87.40;;;;;;7393818;19;20139;-76
2022/06/16 00:15:09;;;;;;;2.45;2.20;;;22.90;87.50;;;;;;7395800;19;20463;-72
2022/06/16 00:17:35;;;;;;;4.65;1.98;;;22.90;87.20;;;;;;7391583;19;20183;-72
2022/06/16 00:20:01;;;;;;;3.00;2.20;;;22.90;87.70;;;;;;7391146;19;20165;-76
2022/06/16 00:22:28;;;;;;;2.58;2.17;;;22.90;87.80;;;;;;7394020;19;20250;-77
2022/06/16 00:24:54;;;;;;;2.53;1.90;;;22.80;87.90;;;;;;7391166;19;20597;-77
2022/06/16 00:27:19;;;;;;;3.10;2.28;;;22.80;88.50;;;;;;7392595;19;20630;-72
2022/06/16 00:29:46;;;;;;;3.50;2.50;;;22.80;87.90;;;;;;7393267;19;20144;-75
2022/06/16 00:32:11;;;;;;;2.63;2.20;;;22.90;87.50;;;;;;7393667;19;20146;-77
2022/06/16 00:34:37;;;;;;;2.28;1.75;;;22.60;88.10;;;;;;7394238;19;20135;-71
2022/06/16 00:37:03;;;;;;;3.33;2.00;;;22.50;88.10;;;;;;7389489;19;20481;-71
2022/06/16 00:39:29;;;;;;;2.67;1.98;;;22.60;88.40;;;;;;7394061;19;20202;-75
2022/06/16 00:41:55;;;;;;;3.13;2.33;;;22.70;88.80;;;;;;7393083;19;20134;-72
2022/06/16 00:44:23;;;;;;;4.80;2.28;;;22.70;88.00;;;;;;7391617;19;20147;-72
2022/06/16 00:46:49;;;;;;;3.25;2.08;;;22.70;87.90;;;;;;7391512;19;20669;-75
2022/06/16 00:49:16;;;;;;;4.18;2.22;;;22.20;88.80;;;;;;7392269;19;20134;-76
2022/06/16 00:51:50;;;;;;;3.83;2.33;;;21.90;89.80;;;;;;7391234;19;20142;-73
2022/06/16 00:54:21;;;;;;;3.40;2.35;;;21.90;90.00;;;;;;7391640;19;20162;-72
2022/06/16 00:56:49;;;;;;;2.90;1.85;;;21.70;90.20;;;;;;7391905;19;20173;-72
2022/06/16 00:59:15;;;;;;;4.15;2.55;;;21.60;90.40;;;;;;7390488;19;20410;-77
2022/06/16 01:01:44;;;;;;;4.70;2.22;;;21.40;90.80;;;;;;7390094;19;20139;-72
2022/06/16 01:06:56;;;;;;;4.82;2.58;;;21.70;91.10;;;;;;7393937;19;20147;-73
2022/06/16 01:09:27;;;;;;;6.57;3.47;;;21.50;91.30;;;;;;7389783;19;20153;-72
2022/06/16 01:15:07;;;;;;;4.70;2.92;;;21.80;91.40;;;;;;7388443;19;20843;-72
2022/06/16 01:17:51;;;;;;;4.10;3.10;;;22.00;91.30;;;;;;7387015;19;20143;-76
2022/06/16 01:20:54;;;;;;;3.20;2.70;;;21.80;91.80;;;;;;7389170;19;20139;-76
2022/06/16 01:23:37;;;;;;;4.13;2.85;;;21.80;91.70;;;;;;7392549;19;20157;-72
2022/06/16 01:26:32;;;;;;;3.38;2.60;;;22.10;91.70;;;;;;7389746;19;20147;-76
2022/06/16 01:29:03;;;;;;;3.58;2.35;;;21.90;91.90;;;;;;7392371;19;20916;-78
2022/06/16 01:32:01;;;;;;;7.65;2.83;;;21.80;92.20;;;;;;7390614;19;20214;-77
2022/06/16 01:34:45;;;;;;;5.32;2.40;;;22.00;92.20;;;;;;7388637;19;20135;-71
2022/06/16 01:37:19;;;;;;;3.05;2.38;;;21.60;92.50;;;;;;7387605;19;20149;-72
2022/06/16 01:39:49;;;;;;;3.50;2.80;;;21.70;92.50;;;;;;7388964;19;20615;-72
2022/06/16 01:42:23;;;;;;;5.07;2.78;;;21.40;92.60;;;;;;7388500;19;20150;-75
2022/06/16 01:45:17;;;;;;;3.58;2.45;;;21.10;93.20;;;;;;7393497;19;20165;-76
2022/06/16 01:47:50;;;;;;;6.25;2.85;;;21.10;93.60;;;;;;7387663;19;20154;-72
2022/06/16 01:50:26;;;;;;;4.10;2.45;;;21.40;93.50;;;;;;7389713;19;20439;-76
2022/06/16 01:52:57;;;;;;;3.15;2.58;;;21.50;93.20;;;;;;7390592;19;20138;-77
2022/06/16 01:55:33;;;;;;;3.08;2.40;;;21.30;93.80;;;;;;7391324;19;20139;-72
2022/06/16 01:58:06;;;;;;;3.92;2.63;;;21.10;93.90;;;;;;7388817;19;20134;-75
2022/06/16 02:00:33;;;;;;;3.47;2.70;;;21.40;93.90;;;;;;7387350;19;20139;-73
2022/06/16 02:03:10;;;;;;;3.20;2.40;;;21.10;94.30;;;;;;7388309;19;20154;-76
2022/06/16 02:06:14;;;;;;;3.33;2.40;;;21.00;94.60;;;;;;7388738;19;20138;-76
2022/06/16 02:08:47;;;;;;;2.30;2.10;;;21.10;94.50;;;;;;7384505;19;20134;-76
2022/06/16 02:11:32;;;;;;;4.68;2.58;;;21.20;94.80;;;;;;7392059;19;20154;-76
2022/06/16 02:14:16;;;;;;;4.65;2.72;;;21.40;94.80;;;;;;7394092;19;20141;-72
2022/06/16 02:16:44;;;;;;;4.35;2.42;;;21.00;95.10;;;;;;7386890;19;20245;-76
2022/06/16 02:19:13;;;;;;;4.47;2.67;;;20.70;95.50;;;;;;7389863;19;20636;-76
2022/06/16 02:21:57;;;;;;;7.57;2.65;;;20.70;96.00;;;;;;7389722;19;20176;-76
2022/06/16 02:24:26;;;;;;;3.33;3.00;;;20.70;96.00;;;;;;7382613;19;20140;-72
2022/06/16 02:26:55;;;;;;;3.28;2.60;;;20.60;96.50;;;;;;7390325;19;20147;-72
2022/06/16 02:29:23;;;;;;;6.28;2.80;;;20.80;96.50;;;;;;7391892;19;20154;-77
2022/06/16 02:32:01;;;;;;;3.60;3.00;;;20.90;97.10;;;;;;7401811;19;20585;-71
2022/06/16 02:35:04;;;;;;;5.30;2.97;;;21.20;97.00;;;;;;7396337;19;20176;-72
2022/06/16 02:37:47;;;;;;;3.83;2.65;;;21.20;97.10;;;;;;7393719;19;20159;-72
2022/06/16 02:40:16;;;;;;;4.32;2.67;;;21.10;97.80;;;;;;7395861;19;20135;-71
2022/06/16 02:42:55;;;;;;;3.60;2.80;;;20.90;98.00;;;;;;7398165;19;20138;-72
2022/06/16 02:45:38;;;;;;;8.02;2.83;;;21.00;98.00;;;;;;7397067;19;20138;-76
2022/06/16 02:48:26;;;;;;;4.85;3.25;;;20.90;98.40;;;;;;7399083;19;20134;-77
2022/06/16 02:51:16;;;;;;;6.75;3.20;;;20.80;98.80;;;;;;7397878;19;20138;-77
2022/06/16 02:54:11;;;;;;;3.55;2.80;;;21.00;98.90;;;;;;7396023;19;20147;-73
2022/06/16 02:56:43;;;;;;;6.57;2.85;;;21.10;98.60;;;;;;7390848;19;20138;-73
2022/06/16 02:59:23;;;;;;;4.68;2.80;;;20.90;98.70;;;;;;7397397;19;20587;-72
2022/06/16 03:01:50;;;;;;;3.33;2.83;;;20.80;97.80;;;;;;7399297;19;20134;-76
2022/06/16 03:04:18;;;;;;;3.78;2.65;;;21.00;98.10;;;;;;7393092;19;20159;-75
2022/06/16 03:06:44;;;;;;;3.20;2.90;;;21.10;98.30;;;;;;7396747;19;20142;-76
2022/06/16 03:09:16;;;;;;;5.00;2.88;;;21.20;98.70;;;;;;7393535;19;20214;-72
2022/06/16 03:11:42;;;;;;;3.20;2.83;;;21.20;99.50;;;;;;7395168;19;20143;-77
2022/06/16 03:14:08;;;;;;;4.82;2.80;;;21.20;99.60;;;;;;7394486;19;20154;-76
2022/06/16 03:16:36;;;;;;;4.32;3.10;;;21.10;99.90;;;;;;7392273;19;20163;-77
2022/06/16 03:19:01;;;;;;;3.60;2.85;;;20.90;99.90;;;;;;7393396;19;20146;-77
2022/06/16 03:21:27;;;;;;;4.53;2.78;;;20.60;99.90;;;;;;7396987;19;20139;-76
2022/06/16 03:23:53;;;;;;;3.78;2.67;;;20.70;99.80;;;;;;7394023;19;20135;-76
2022/06/16 03:26:19;;;;;;;3.05;2.60;;;20.70;99.30;;;;;;7393761;19;20138;-76
2022/06/16 03:28:44;;;;;;;2.58;2.35;;;20.80;98.70;;;;;;7394015;19;20142;-72
2022/06/16 03:31:10;;;;;;;3.78;2.53;;;20.90;98.30;;;;;;7393281;19;20198;-71
2022/06/16 03:33:36;;;;;;;4.13;2.33;;;21.10;98.70;;;;;;7396732;19;20148;-76
2022/06/16 03:36:02;;;;;;;3.85;2.47;;;20.70;97.60;;;;;;7391091;19;20154;-76
2022/06/16 03:38:35;;;;;;;4.90;2.00;;;20.70;97.90;;;;;;7394615;19;20151;-76
2022/06/16 03:41:01;;;;;;;3.00;2.60;;;20.80;97.30;;;;;;7394056;19;20213;-75
2022/06/16 03:43:26;;;;;;;2.92;2.30;;;20.90;96.80;;;;;;7393569;19;20130;-72
2022/06/16 03:45:52;;;;;;;5.25;2.70;;;21.00;97.20;;;;;;7394166;19;20150;-77
2022/06/16 03:48:18;;;;;;;4.10;2.78;;;21.20;98.50;;;;;;7394157;19;20135;-72
2022/06/16 03:50:44;;;;;;;3.08;2.42;;;21.30;98.30;;;;;;7392022;19;20595;-73
2022/06/16 03:53:10;;;;;;;6.95;2.53;;;21.30;97.40;;;;;;7392752;19;20147;-75
2022/06/16 03:55:36;;;;;;;5.57;3.30;;;21.20;97.40;;;;;;7395330;19;20142;-72
2022/06/16 03:58:03;;;;;;;4.68;2.90;;;21.20;98.50;;;;;;7393848;19;20161;-72
2022/06/16 04:00:30;;;;;;;4.65;3.30;;;21.30;99.90;;;;;;7390838;19;20145;-76
2022/06/16 04:05:41;;;;;;;3.25;2.58;;;21.10;99.90;;;;;;7395728;19;20143;-75
2022/06/16 04:08:09;;;;;;;3.97;2.63;;;21.10;99.90;;;;;;7393207;19;20152;-77
2022/06/16 04:10:34;;;;;;;4.32;2.70;;;21.20;99.70;;;;;;7391007;19;20137;-76
2022/06/16 04:13:00;;;;;;;3.13;2.40;;;21.20;99.70;;;;;;7393938;19;20209;-77
2022/06/16 04:15:26;;;;;;;4.10;2.70;;;21.20;99.20;;;;;;7395225;19;20227;-72
2022/06/16 04:17:52;;;;;;;2.63;2.25;;;21.30;98.20;;;;;;7389651;19;20462;-72
2022/06/16 04:20:18;;;;;;;2.83;1.90;;;21.30;97.30;;;;;;7393977;19;20161;-72
2022/06/16 04:22:44;;;;;;;3.60;2.40;;;21.30;97.00;;;;;;7393833;19;20162;-72
2022/06/16 04:25:13;;;;;;;2.53;2.00;;;21.30;96.80;;;;;;7390311;19;20154;-72
2022/06/16 04:27:43;;;;;;;3.10;2.20;;;21.20;96.30;;;;;;7394662;19;20219;-71
2022/06/16 04:30:09;;;;;;;4.88;2.65;;;21.30;96.20;;;;;;7391449;19;20599;-77
2022/06/16 04:32:36;;;;;;;2.70;2.40;;;21.40;97.70;;;;;;7392581;19;20496;-76
2022/06/16 04:35:02;;;;;;;5.60;3.03;;;21.70;99.30;;;;;;7394934;19;20602;-72
2022/06/16 04:37:28;;;;;;;3.60;2.70;;;21.60;99.10;;;;;;7390246;19;20135;-76
2022/06/16 04:39:54;;;;;;;3.20;2.70;;;21.60;99.40;;;;;;7391981;19;20131;-77
2022/06/16 04:42:20;;;;;;;3.40;2.60;;;21.50;99.90;;;;;;7393489;19;20625;-72
2022/06/16 04:44:46;;;;;;;4.25;3.03;;;21.50;99.90;;;;;;7392843;19;20139;-76
2022/06/16 04:47:12;;;;;;;3.67;3.03;;;21.50;99.90;;;;;;7388761;19;20147;-77
2022/06/16 04:49:38;;;;;;;5.22;3.03;;;21.60;99.90;;;;;;7389957;19;20138;-72
2022/06/16 04:52:05;;;;;;;3.35;2.55;;;21.60;99.70;;;;;;7394344;19;20178;-72
2022/06/16 04:54:31;;;;;;;5.53;2.50;;;21.70;99.50;;;;;;7391140;19;20138;-75
2022/06/16 04:56:57;;;;;;;6.40;2.90;;;21.60;99.90;;;;;;7390198;19;20135;-76
2022/06/16 04:59:23;;;;;;;4.13;2.78;;;21.60;99.90;;;;;;7389720;19;20138;-76
2022/06/16 05:01:49;;;;;;;4.60;2.80;;;21.50;99.90;;;;;;7391071;19;20139;-76
2022/06/16 05:04:14;;;;;;;3.33;3.03;;;21.50;99.90;;;;;;7388896;19;20151;-72
2022/06/16 05:06:40;;;;;;;3.63;2.67;;;21.50;99.90;;;;;;7391110;19;20142;-77
2022/06/16 05:09:06;;;;;;;5.78;2.90;;;21.50;99.90;;;;;;7394644;19;20606;-77
2022/06/16 05:11:32;;;;;;;3.20;2.67;;;21.50;99.90;;;;;;7390813;19;20239;-76
2022/06/16 05:14:00;;;;;;;3.13;2.63;;;21.40;99.90;;;;;;7394001;19;20135;-76
2022/06/16 05:16:27;;;;;;;4.45;3.40;;;21.50;99.90;;;;;;7389722;19;20147;-76
2022/06/16 05:18:56;;;;;;;2.97;2.60;;;21.50;99.90;;;;;;7390080;19;20164;-76
2022/06/16 05:21:22;;;;;;;3.08;2.50;;;21.50;99.90;;;;;;7388343;19;20175;-73
2022/06/16 05:23:48;;;;;;;4.30;2.80;;;21.60;99.90;;;;;;7391193;19;20127;-73
2022/06/16 05:26:14;;;;;;;5.38;3.00;;;21.00;99.90;;;;;;7393037;19;20141;-71
2022/06/16 05:28:40;;;;;;;3.05;2.75;;;21.20;99.90;;;;;;7389558;19;20484;-72
2022/06/16 05:31:06;;;;;;;5.20;3.22;;;21.20;99.90;;;;;;7389645;19;20640;-72
2022/06/16 05:33:32;;;;;;;3.53;2.85;;;21.40;99.90;;;;;;7388844;19;20149;-78
2022/06/16 05:36:00;;;;;;;3.08;2.63;;;21.50;99.90;;;;;;7389519;19;20210;-77
2022/06/16 05:38:27;;;;;;;4.10;2.80;;;21.80;99.90;;;;;;7390865;19;20146;-75
2022/06/16 05:41:08;;;;;;;4.22;2.42;;;21.80;99.90;;;;;;7390967;19;20138;-77
2022/06/16 05:43:34;;;;;;;3.85;2.72;;;21.80;99.90;;;;;;7394342;19;20158;-71
2022/06/16 05:46:00;;;;;;;3.65;2.33;;;21.80;99.90;;;;;;7390287;19;20161;-72
2022/06/16 05:48:27;;;;;;;2.55;2.30;;;21.80;99.90;;;;;;7390098;19;20135;-72
2022/06/16 05:50:53;;;;;;;5.28;2.83;;;21.40;99.90;;;;;;7391128;19;20133;-71
2022/06/16 05:53:19;;;;;;;4.15;2.53;;;21.40;99.90;;;;;;7389328;19;20568;-76
2022/06/16 05:55:46;;;;;;;4.10;2.90;;;21.80;99.90;;;;;;7390980;19;20146;-77
2022/06/16 05:58:11;;;;;;;4.22;2.63;;;22.00;99.90;;;;;;7389735;19;20550;-75
2022/06/16 06:00:38;;;;;;;3.70;2.83;;;22.10;99.60;;;;;;7392162;19;20138;-72
2022/06/16 06:03:04;;;;;;;3.63;2.88;;;22.10;99.50;;;;;;7388562;19;20163;-71
2022/06/16 06:05:30;;;;;;;3.85;2.63;;;22.10;99.40;;;;;;7389836;19;20185;-72
2022/06/16 06:16:25;;;;;;;3.47;2.40;;;23.00;98.40;;;;;;7392743;19;20151;-71
2022/06/16 06:18:54;;;;;;;2.97;2.53;;;23.80;97.50;;;;;;7387431;19;20142;-72
2022/06/16 06:21:57;;;;;;;4.43;2.90;;;24.30;96.70;;;;;;7393187;19;20138;-73
2022/06/16 06:24:06;;;;;;;4.45;2.60;;;24.90;95.80;;;;;;7387610;19;20122;-72
2022/06/16 06:26:32;;;;;;;4.38;2.67;;;25.40;94.90;;;;;;7387923;19;20150;-76
2022/06/16 06:28:57;;;;;;;4.13;2.67;;;26.10;94.10;;;;;;7389363;19;20130;-74
2022/06/16 06:31:23;;;;;;;2.95;2.58;;;27.10;92.70;;;;;;7391245;19;20687;-71
2022/06/16 06:33:49;;;;;;;2.38;2.17;;;27.70;91.90;;;;;;7389918;19;20138;-70
2022/06/16 06:36:14;;;;;;;4.90;2.25;;;27.90;91.70;;;;;;7387505;19;20126;-74
2022/06/16 06:38:40;;;;;;;3.22;2.67;;;28.30;91.00;;;;;;7388973;19;20596;-74
2022/06/16 06:41:07;;;;;;;2.72;2.35;;;28.90;90.20;;;;;;7385679;19;20205;-72
2022/06/16 06:43:33;;;;;;;3.25;2.30;;;29.20;88.30;;;;;;7388675;19;20123;-74
2022/06/16 06:45:59;;;;;;;6.63;2.30;;;28.90;88.90;;;;;;7388814;19;20134;-71
2022/06/16 06:48:24;;;;;;;2.88;2.22;;;28.60;88.00;;;;;;7389670;19;20142;-71
2022/06/16 06:50:51;;;;;;;4.20;2.40;;;27.90;89.40;;;;;;7388604;19;20154;-73
2022/06/16 06:53:17;;;;;;;4.35;2.50;;;27.20;90.40;;;;;;7387381;19;20474;-74
2022/06/16 06:55:46;;;;;;;5.10;3.30;;;26.90;90.40;;;;;;7389325;19;20146;-71
2022/06/16 06:58:22;;;;;;;3.45;3.15;;;27.20;89.90;;;;;;7386216;19;20130;-71
2022/06/16 07:00:53;;;;;;;3.78;2.35;;;27.40;89.90;;;;;;7380773;19;20154;-74
2022/06/16 07:03:22;;;;;;;2.33;2.13;;;26.80;90.60;;;;;;7388156;19;20194;-72
2022/06/16 07:05:49;;;;;;;4.45;3.03;;;26.10;91.40;;;;;;7386163;19;20151;-74
2022/06/16 07:08:15;;;;;;;5.18;2.47;;;25.60;91.90;;;;;;7388767;19;20150;-74
2022/06/16 07:10:41;;;;;;;3.72;2.60;;;25.50;92.00;;;;;;7387740;19;20391;-75
2022/06/16 07:13:07;;;;;;;3.00;2.45;;;25.20;92.20;;;;;;7392491;19;20143;-72
2022/06/16 07:15:34;;;;;;;4.10;2.70;;;25.20;92.40;;;;;;7395211;19;20175;-72
2022/06/16 07:18:00;;;;;;;3.78;2.35;;;25.30;92.40;;;;;;7393692;19;20167;-76
2022/06/16 07:20:26;;;;;;;3.15;2.28;;;25.70;92.10;;;;;;7395103;19;20528;-76
2022/06/16 07:22:52;;;;;;;4.00;2.78;;;26.10;92.10;;;;;;7403610;19;20202;-77
2022/06/16 07:25:19;;;;;;;2.55;2.35;;;26.30;91.40;;;;;;7396056;19;20119;-76
2022/06/16 07:27:44;;;;;;;3.28;2.50;;;26.60;90.90;;;;;;7397314;19;20142;-74
2022/06/16 07:30:15;;;;;;;2.90;2.53;;;26.90;90.70;;;;;;7393719;19;20212;-75
2022/06/16 07:32:42;;;;;;;3.80;2.35;;;26.90;90.50;;;;;;7396368;19;20606;-75
2022/06/16 07:35:08;;;;;;;3.67;2.53;;;26.70;90.90;;;;;;7393892;19;20142;-75
2022/06/16 07:37:34;;;;;;;3.70;2.60;;;26.50;90.60;;;;;;7391689;19;20141;-75
2022/06/16 07:40:00;;;;;;;6.13;2.53;;;26.10;90.70;;;;;;7393916;19;20512;-74
2022/06/16 07:42:27;;;;;;;4.15;2.40;;;26.00;91.40;;;;;;7392857;19;20186;-75
2022/06/16 07:44:53;;;;;;;3.10;2.35;;;26.10;91.20;;;;;;7392359;19;20138;-75
2022/06/16 07:47:20;;;;;;;6.75;2.80;;;26.50;91.10;;;;;;7392195;19;20178;-76
2022/06/16 07:49:49;;;;;;;3.28;2.70;;;27.20;90.90;;;;;;7391935;19;20147;-74
2022/06/16 07:52:16;;;;;;;4.00;2.67;;;27.60;90.00;;;;;;7397456;19;20134;-75
2022/06/16 07:54:43;;;;;;;3.10;2.42;;;28.00;89.80;;;;;;7395163;19;20181;-75
2022/06/16 07:57:09;;;;;;;3.30;2.70;;;28.10;89.10;;;;;;7391558;19;20126;-74
2022/06/16 07:59:35;;;;;;;3.42;2.47;;;28.20;90.10;;;;;;7393046;19;20150;-75
2022/06/16 08:02:02;;;;;;;3.35;2.58;;;28.70;88.80;;;;;;7393081;19;20222;-74
2022/06/16 08:04:28;;;;;;;3.60;2.13;;;28.80;87.90;;;;;;7392099;19;20146;-75
2022/06/16 08:07:00;;;;;;;4.15;2.58;;;28.90;89.70;;;;;;7392801;19;20570;-73
2022/06/16 08:09:31;;;;;;;3.28;2.40;;;29.00;89.20;;;;;;7393733;19;20131;-75
2022/06/16 08:12:03;;;;;;;5.22;2.88;;;29.30;88.20;;;;;;7392156;19;20151;-76
2022/06/16 08:14:32;;;;;;;4.10;2.20;;;29.10;88.10;;;;;;7392368;19;20134;-73
2022/06/16 08:16:59;;;;;;;6.47;2.45;;;29.20;90.00;;;;;;7392536;19;20137;-73
2022/06/16 08:19:25;;;;;;;4.63;2.58;;;29.40;88.60;;;;;;7392437;19;20222;-76
2022/06/16 08:21:51;;;;;;;3.10;2.40;;;29.60;87.20;;;;;;7395551;19;20168;-73
2022/06/16 08:24:17;;;;;;;3.50;2.15;;;29.80;86.70;;;;;;7393124;19;20141;-74
2022/06/16 08:26:44;;;;;;;3.88;2.60;;;29.90;86.00;;;;;;7391159;19;20147;-75
2022/06/16 08:29:14;;;;;;;2.70;2.20;;;29.80;85.80;;;;;;7392879;19;20530;-75
2022/06/16 08:31:40;;;;;;;2.45;2.25;;;30.00;86.00;;;;;;7396005;19;20131;-77
2022/06/16 08:34:06;;;;;;;2.90;2.20;;;30.10;86.60;;;;;;7393052;19;20511;-75
2022/06/16 08:36:33;;;;;;;5.88;2.63;;;30.60;85.30;;;;;;7392138;19;20229;-76
2022/06/16 08:38:59;;;;;;;3.33;2.58;;;30.90;82.90;;;;;;7393215;19;20149;-75
2022/06/16 08:41:33;;;;;;;3.33;2.20;;;30.80;82.70;;;;;;7394985;19;20134;-75
2022/06/16 08:44:03;;;;;;;3.13;2.05;;;31.00;81.30;;;;;;7394469;19;20131;-76
2022/06/16 08:46:39;;;;;;;3.25;2.60;;;29.80;83.20;;;;;;7393556;19;20194;-77
2022/06/16 08:49:19;;;;;;;3.92;1.98;;;29.20;82.60;;;;;;7396277;19;20142;-76
2022/06/16 08:52:21;;;;;;;3.10;2.47;;;28.50;85.80;;;;;;7391219;19;20127;-77
2022/06/16 08:55:09;;;;;;;3.72;2.10;;;28.20;85.20;;;;;;7389851;19;20146;-76
2022/06/16 08:58:11;;;;;;;3.80;2.38;;;28.20;83.20;;;;;;7390511;19;20162;-76
2022/06/16 09:01:01;;;;;;;4.43;2.20;;;28.30;84.80;;;;;;7390152;19;20152;-77
2022/06/16 09:03:39;;;;;;;2.75;2.38;;;28.50;84.10;;;;;;7388708;19;20142;-76
2022/06/16 09:06:23;;;;;;;2.85;1.92;;;28.70;83.30;;;;;;7395267;19;20142;-76
2022/06/16 09:08:55;;;;;;;2.90;2.10;;;29.00;81.80;;;;;;7395592;19;20222;-76
2022/06/16 09:11:35;;;;;;;3.78;2.08;;;29.00;81.30;;;;;;7391118;19;20507;-75
2022/06/16 09:15:10;;;;;;;3.15;2.20;;;29.10;82.40;;;;;;7390943;19;20170;-75
2022/06/16 09:17:28;;;;;;;2.50;2.30;;;28.80;81.20;;;;;;7388056;19;20186;-79
2022/06/16 09:20:16;;;;;;;3.70;2.35;;;28.30;82.60;;;;;;7391329;19;20181;-75
2022/06/16 09:22:55;;;;;;;5.15;2.25;;;28.30;83.30;;;;;;7392185;19;20145;-74
2022/06/16 09:25:50;;;;;;;4.13;2.38;;;28.70;84.90;;;;;;7396146;19;20153;-82
2022/06/16 09:28:28;;;;;;;3.75;2.35;;;29.20;84.70;;;;;;7390906;19;20687;-78
2022/06/16 09:30:58;;;;;;;4.18;2.60;;;29.70;83.70;;;;;;7391291;19;20162;-78
2022/06/16 09:33:29;;;;;;;2.42;2.22;;;29.70;84.00;;;;;;7391632;19;20154;-77
2022/06/16 09:36:11;;;;;;;2.90;2.28;;;29.80;85.00;;;;;;7387901;19;20152;-80
2022/06/16 09:39:04;;;;;;;2.97;2.40;;;30.10;85.40;;;;;;7390720;19;20149;-77
2022/06/16 09:44:34;;;;;;;3.28;2.15;;;29.70;82.80;;;;;;7397641;19;20158;-77
2022/06/16 09:47:09;;;;;;;3.58;2.40;;;29.20;84.00;;;;;;7393258;19;20141;-77
2022/06/16 09:49:51;;;;;;;6.55;2.55;;;28.90;86.10;;;;;;7389443;19;20142;-76
2022/06/16 09:52:39;;;;;;;3.40;2.22;;;28.70;85.10;;;;;;7396134;19;20476;-80
2022/06/16 09:55:35;;;;;;;4.07;2.35;;;28.50;85.60;;;;;;7389619;19;20149;-77
2022/06/16 09:58:30;;;;;;;3.33;2.53;;;28.30;86.50;;;;;;7391515;19;20175;-77
2022/06/16 10:01:02;;;;;;;3.42;2.55;;;28.00;87.00;;;;;;7395522;19;20154;-79
2022/06/16 10:03:46;;;;;;;4.53;2.63;;;27.90;87.90;;;;;;7390329;19;20190;-79
2022/06/16 10:06:24;;;;;;;4.32;2.35;;;27.90;88.30;;;;;;7388836;19;20504;-74
2022/06/16 10:09:10;;;;;;;2.97;2.38;;;28.10;88.30;;;;;;7390002;19;20164;-80
2022/06/16 10:12:00;;;;;;;3.33;2.35;;;27.90;87.50;;;;;;7388273;19;20594;-76
2022/06/16 10:14:50;;;;;;;4.60;2.50;;;27.60;88.50;;;;;;7388677;19;20142;-77
2022/06/16 10:17:20;;;;;;;2.60;2.25;;;27.50;89.30;;;;;;7380254;19;20760;-75
2022/06/16 10:19:48;;;;;;;2.60;2.17;;;27.60;89.50;;;;;;7377571;19;20669;-75
2022/06/16 10:22:20;;;;;;;7.25;2.50;;;27.60;89.50;;;;;;7380096;19;20139;-77
2022/06/16 10:24:56;;;;;;;4.82;2.58;;;27.50;90.00;;;;;;7377667;19;20146;-79
2022/06/16 10:27:32;;;;;;;4.35;2.80;;;27.50;90.40;;;;;;7382774;19;20159;-79
2022/06/16 10:30:01;;;;;;;2.92;2.10;;;27.60;90.50;;;;;;7381552;19;20175;-77
2022/06/16 10:33:07;;;;;;;5.30;2.50;;;27.80;90.40;;;;;;7390702;19;20153;-78
2022/06/16 10:35:33;;;;;;;3.22;2.55;;;28.00;90.30;;;;;;7389973;19;20163;-78
2022/06/16 10:38:00;;;;;;;6.22;2.50;;;28.20;89.60;;;;;;7386180;19;20127;-79
2022/06/16 10:40:31;;;;;;;4.40;2.40;;;28.20;88.40;;;;;;7390887;19;20138;-82
2022/06/16 10:43:05;;;;;;;3.60;2.15;;;28.10;89.90;;;;;;7389312;19;20127;-79
2022/06/16 10:45:35;;;;;;;2.92;2.20;;;28.20;88.50;;;;;;7388899;19;20504;-79
2022/06/16 10:48:06;;;;;;;3.92;2.05;;;28.10;89.30;;;;;;7389519;19;20165;-80
2022/06/16 10:50:35;;;;;;;4.40;2.60;;;28.00;88.60;;;;;;7392294;19;20135;-76
2022/06/16 10:53:14;;;;;;;4.43;2.20;;;27.90;88.60;;;;;;7400942;19;20150;-78
2022/06/16 10:55:48;;;;;;;2.38;2.08;;;27.90;88.50;;;;;;7396545;19;20158;-76
2022/06/16 10:58:27;;;;;;;2.50;2.28;;;27.80;89.20;;;;;;7393984;19;20137;-78
2022/06/16 11:01:16;;;;;;;3.60;2.10;;;27.70;90.00;;;;;;7394808;19;20590;-79
2022/06/16 11:04:20;;;;;;;3.22;2.13;;;27.90;90.00;;;;;;7391940;19;20206;-78
2022/06/16 11:10:56;;;;;;;3.13;2.42;;;28.40;87.90;;;;;;7387451;19;20190;-76
2022/06/16 11:13:29;;;;;;;4.20;2.20;;;28.10;88.10;;;;;;7390158;19;20551;-75
2022/06/16 11:15:56;;;;;;;4.13;2.53;;;28.10;87.60;;;;;;7390661;19;20158;-75
2022/06/16 11:18:25;;;;;;;3.75;2.10;;;28.10;88.50;;;;;;7394074;19;20147;-75
2022/06/16 11:20:55;;;;;;;4.22;2.20;;;28.10;88.60;;;;;;7387543;19;20621;-76
2022/06/16 11:23:21;;;;;;;2.45;2.22;;;28.30;89.40;;;;;;7395078;19;20507;-76
2022/06/16 11:25:54;;;;;;;3.35;2.17;;;28.50;88.30;;;;;;7396096;19;20169;-76
2022/06/16 11:28:22;;;;;;;4.13;2.40;;;28.50;87.50;;;;;;7395844;19;20127;-77
2022/06/16 11:30:48;;;;;;;6.03;2.40;;;28.40;87.50;;;;;;7392938;19;21137;-75
2022/06/16 11:36:55;;;;;;;2.28;2.08;;;28.00;87.20;;;;;;7386239;19;20126;-74
2022/06/16 11:39:42;;;;;;;2.58;2.20;;;28.00;89.00;;;;;;7384433;19;21146;-76
2022/06/16 11:42:23;;;;;;;2.25;1.90;;;28.30;86.90;;;;;;7388386;19;20582;-76
2022/06/16 11:44:54;;;;;;;4.25;2.33;;;28.50;86.30;;;;;;7395333;19;20146;-75
2022/06/16 11:47:41;;;;;;;3.25;2.10;;;28.60;85.70;;;;;;7396978;19;20119;-75
2022/06/16 11:50:17;;;;;;;5.45;2.10;;;28.50;85.30;;;;;;7392617;19;20172;-75
2022/06/16 11:52:54;;;;;;;4.18;2.67;;;28.30;85.60;;;;;;7388109;19;20877;-75
2022/06/16 11:55:39;;;;;;;6.85;2.22;;;28.20;85.60;;;;;;7381545;19;20146;-76
2022/06/16 11:58:25;;;;;;;3.30;2.05;;;28.20;86.20;;;;;;7391224;19;20158;-76
2022/06/16 12:01:02;;;;;;;3.33;2.20;;;28.40;85.80;;;;;;7392427;19;20161;-75
2022/06/16 12:03:28;;;;;;;3.13;2.08;;;28.50;85.80;;;;;;7386922;19;20177;-76
2022/06/16 12:06:23;;;;;;;2.50;2.30;;;28.60;84.20;;;;;;7388011;19;20138;-76
2022/06/16 12:09:07;;;;;;;3.78;1.98;;;28.60;84.30;;;;;;7390381;19;20154;-76
2022/06/16 12:11:55;;;;;;;3.22;2.00;;;28.60;84.60;;;;;;7392377;19;20517;-75
2022/06/16 12:14:41;;;;;;;2.78;1.92;;;28.70;83.50;;;;;;7394888;19;20138;-76
2022/06/16 12:17:45;;;;;;;2.53;1.90;;;28.70;81.10;;;;;;7391342;19;20141;-75
2022/06/16 12:20:35;;;;;;;2.95;2.08;;;28.70;82.40;;;;;;7392668;19;20150;-74
2022/06/16 12:23:15;;;;;;;2.85;1.85;;;28.60;83.80;;;;;;7397448;19;20510;-75
2022/06/16 12:26:05;;;;;;;3.80;1.90;;;28.50;83.80;;;;;;7393544;19;20417;-76
2022/06/16 12:29:07;;;;;;;3.65;2.08;;;28.80;81.60;;;;;;7382560;19;20201;-76
2022/06/16 12:32:13;;;;;;;3.65;2.08;;;28.80;82.10;;;;;;7386010;19;20153;-74
2022/06/16 12:35:18;;;;;;;5.43;2.40;;;28.80;82.00;;;;;;7386771;19;20175;-75
2022/06/16 12:37:56;;;;;;;2.20;1.80;;;28.50;81.60;;;;;;7388396;19;20633;-73
2022/06/16 12:40:32;;;;;;;5.07;2.10;;;28.30;81.80;;;;;;7392735;19;20138;-78
2022/06/16 12:43:03;;;;;;;4.97;2.20;;;28.40;81.70;;;;;;7388180;19;20141;-74
2022/06/16 12:45:31;;;;;;;4.35;2.70;;;28.20;81.50;;;;;;7390516;19;20509;-76
2022/06/16 12:48:02;;;;;;;3.70;2.30;;;28.30;81.90;;;;;;7384111;19;20163;-73
2022/06/16 12:50:39;;;;;;;3.05;2.13;;;28.20;81.80;;;;;;7392535;19;20159;-75
2022/06/16 12:53:13;;;;;;;2.35;2.15;;;28.30;81.90;;;;;;7391866;19;20138;-79
2022/06/16 12:55:47;;;;;;;3.40;1.90;;;28.30;82.50;;;;;;7392820;19;20161;-77
2022/06/16 12:58:19;;;;;;;3.28;2.10;;;28.30;83.50;;;;;;7389506;19;20155;-75
2022/06/16 13:00:49;;;;;;;4.35;2.10;;;28.40;83.40;;;;;;7393864;19;20135;-75
2022/06/16 13:03:38;;;;;;;4.05;2.08;;;28.60;81.20;;;;;;7391888;19;20523;-75
2022/06/16 13:06:05;;;;;;;3.45;2.03;;;28.50;81.80;;;;;;7385385;19;20150;-74
2022/06/16 13:08:35;;;;;;;2.65;2.20;;;28.50;82.20;;;;;;7393383;19;20138;-74
2022/06/16 13:11:06;;;;;;;3.80;2.28;;;28.70;80.90;;;;;;7389399;19;20482;-75
2022/06/16 13:13:40;;;;;;;3.95;2.17;;;28.70;80.30;;;;;;7391675;19;20608;-75
2022/06/16 13:16:08;;;;;;;3.13;2.00;;;28.70;80.20;;;;;;7391655;19;20218;-75
2022/06/16 13:18:44;;;;;;;3.55;1.90;;;28.70;80.60;;;;;;7392372;19;20135;-75
2022/06/16 13:21:10;;;;;;;2.03;1.70;;;28.70;80.80;;;;;;7389509;19;20179;-76
2022/06/16 13:23:45;;;;;;;4.15;2.42;;;28.80;80.10;;;;;;7391673;19;20145;-74
2022/06/16 13:26:27;;;;;;;1.98;1.77;;;29.00;77.70;;;;;;7391838;19;20142;-74
2022/06/16 13:29:09;;;;;;;3.47;1.90;;;28.90;76.10;;;;;;7390613;19;20159;-76
2022/06/16 13:31:44;;;;;;;2.50;1.75;;;28.80;75.90;;;;;;7390479;19;20162;-75
2022/06/16 13:34:18;;;;;;;2.35;1.52;;;28.80;75.90;;;;;;7392816;19;20134;-74
2022/06/16 13:36:44;;;;;;;3.17;1.70;;;28.70;75.70;;;;;;7389733;19;20690;-76
2022/06/16 13:39:47;;;;;;;2.03;1.77;;;28.70;75.90;;;;;;7391605;19;20134;-75
2022/06/16 13:42:18;;;;;;;2.83;2.17;;;28.80;74.20;;;;;;7389694;19;20134;-75
2022/06/16 13:45:12;;;;;;;1.92;1.70;;;28.90;74.90;;;;;;7392740;19;20150;-77